Time;durP1;ratioP1;P1;durP2;ratioP2;P2;SDS_P1;SDS_P2;PMS_P1;PMS_P2;Temp;Humidity;BMP_temperature;BMP_pressure;BME280_temperature;BME280_humidity;BME280_pressure;Samples;Min_cycle;Max_cycle;Signal;HPM_P1;HPM_P2
2021/07/19 00:01:46;;;;;;;17.17;13.68;;;;;;;;;;143743;632;46023;-52
2021/07/19 00:04:13;;;;;;;16.10;13.70;;;;;;;;;;143734;578;47018;-52
2021/07/19 00:06:40;;;;;;;21.45;15.07;;;;;;;;;;143739;624;46013;-52
2021/07/19 00:09:07;;;;;;;18.02;14.30;;;;;;;;;;143739;583;45018;-52
2021/07/19 00:11:36;;;;;;;18.02;15.02;;;;;;;;;;143743;590;45022;-52
2021/07/19 00:14:03;;;;;;;22.80;14.02;;;;;;;;;;143739;565;47019;-53
2021/07/19 00:16:30;;;;;;;17.98;14.20;;;;;;;;;;143733;621;47012;-52
2021/07/19 00:18:57;;;;;;;16.75;13.65;;;;;;;;;;143738;598;45914;-52
2021/07/19 00:21:25;;;;;;;17.40;14.50;;;;;;;;;;143742;699;45036;-52
2021/07/19 00:23:52;;;;;;;16.95;13.62;;;;;;;;;;143740;573;47018;-52
2021/07/19 00:26:20;;;;;;;16.70;14.27;;;;;;;;;;143737;585;47012;-52
2021/07/19 00:28:51;;;;;;;17.45;14.68;;;;;;;;;;143734;616;45915;-52
2021/07/19 00:31:20;;;;;;;19.27;14.48;;;;;;;;;;143741;580;46023;-52
2021/07/19 00:33:48;;;;;;;20.02;14.82;;;;;;;;;;143739;580;47018;-52
2021/07/19 00:36:15;;;;;;;19.42;15.70;;;;;;;;;;143736;564;47013;-52
2021/07/19 00:38:42;;;;;;;30.40;17.62;;;;;;;;;;143736;616;46019;-52
2021/07/19 00:41:11;;;;;;;25.55;17.73;;;;;;;;;;143742;569;45022;-52
2021/07/19 00:43:38;;;;;;;31.95;20.80;;;;;;;;;;143739;589;47019;-52
2021/07/19 00:46:05;;;;;;;22.65;19.42;;;;;;;;;;143734;596;47012;-52
2021/07/19 00:48:33;;;;;;;27.35;17.83;;;;;;;;;;143738;571;45018;-52
2021/07/19 00:51:00;;;;;;;20.00;15.50;;;;;;;;;;143742;599;45023;-52
2021/07/19 00:53:28;;;;;;;24.83;16.10;;;;;;;;;;143732;589;47018;-52
2021/07/19 00:55:56;;;;;;;18.95;16.35;;;;;;;;;;143736;565;47012;-52
2021/07/19 00:58:27;;;;;;;19.95;16.50;;;;;;;;;;143738;626;45019;-52
2021/07/19 01:00:56;;;;;;;18.92;16.17;;;;;;;;;;143739;617;45023;-52
2021/07/19 01:03:25;;;;;;;21.67;16.02;;;;;;;;;;143739;703;47020;-52
2021/07/19 01:05:54;;;;;;;19.67;14.73;;;;;;;;;;143738;627;47012;-52
2021/07/19 01:08:22;;;;;;;20.20;16.58;;;;;;;;;;143738;569;45914;-52
2021/07/19 01:10:49;;;;;;;18.70;16.12;;;;;;;;;;143744;566;45022;-52
2021/07/19 01:13:16;;;;;;;19.37;17.27;;;;;;;;;;143738;620;47020;-52
2021/07/19 01:15:44;;;;;;;22.98;16.17;;;;;;;;;;143736;618;47012;-52
2021/07/19 01:18:12;;;;;;;17.77;16.00;;;;;;;;;;143735;607;45914;-52
2021/07/19 01:21:22;;;;;;;17.67;15.77;;;;;;;;;;143745;583;46022;-52
2021/07/19 01:24:32;;;;;;;21.17;17.17;;;;;;;;;;143740;569;47021;-51
2021/07/19 01:27:40;;;;;;;19.92;14.82;;;;;;;;;;143735;590;47012;-52
2021/07/19 01:30:08;;;;;;;19.10;15.38;;;;;;;;;;143738;592;45911;-51
2021/07/19 01:32:41;;;;;;;21.58;15.70;;;;;;;;;;143743;570;45022;-52
2021/07/19 01:35:09;;;;;;;17.10;14.87;;;;;;;;;;143739;622;47020;-52
2021/07/19 01:37:37;;;;;;;21.85;16.17;;;;;;;;;;143740;573;46030;-52
2021/07/19 01:40:06;;;;;;;20.77;14.77;;;;;;;;;;143738;577;45912;-51
2021/07/19 01:42:35;;;;;;;17.62;15.70;;;;;;;;;;143741;589;45023;-51
2021/07/19 01:45:03;;;;;;;17.55;14.23;;;;;;;;;;143733;600;47018;-52
2021/07/19 01:47:31;;;;;;;20.17;16.15;;;;;;;;;;143736;585;47012;-51
2021/07/19 01:50:00;;;;;;;21.90;15.82;;;;;;;;;;143737;564;45912;-52
2021/07/19 01:52:28;;;;;;;19.70;16.67;;;;;;;;;;143744;580;45023;-52
2021/07/19 01:54:55;;;;;;;20.48;16.20;;;;;;;;;;143739;582;47018;-52
2021/07/19 01:57:24;;;;;;;17.33;15.35;;;;;;;;;;143735;591;47012;-51
2021/07/19 01:59:51;;;;;;;21.37;16.83;;;;;;;;;;143740;586;45019;-52
2021/07/19 02:02:20;;;;;;;20.12;14.95;;;;;;;;;;143742;585;45022;-51
2021/07/19 02:04:48;;;;;;;23.42;16.12;;;;;;;;;;143742;581;47019;-52
2021/07/19 02:07:17;;;;;;;21.60;16.30;;;;;;;;;;143737;617;47013;-52
2021/07/19 02:09:48;;;;;;;20.35;16.17;;;;;;;;;;143736;627;45018;-52
2021/07/19 02:12:16;;;;;;;22.02;16.87;;;;;;;;;;143743;631;46022;-52
2021/07/19 02:14:45;;;;;;;21.40;17.12;;;;;;;;;;143737;569;47019;-52
2021/07/19 02:17:14;;;;;;;21.62;15.50;;;;;;;;;;143735;579;47012;-52
2021/07/19 02:19:45;;;;;;;23.25;17.08;;;;;;;;;;143739;576;45018;-52
2021/07/19 02:22:12;;;;;;;21.73;19.00;;;;;;;;;;143743;571;45023;-52
2021/07/19 02:24:40;;;;;;;21.42;19.23;;;;;;;;;;143739;569;47020;-52
2021/07/19 02:27:08;;;;;;;23.77;19.08;;;;;;;;;;143737;574;47012;-52
2021/07/19 02:29:35;;;;;;;22.35;18.15;;;;;;;;;;143739;625;45913;-52
2021/07/19 02:32:03;;;;;;;21.02;18.25;;;;;;;;;;143742;570;45022;-52
2021/07/19 02:34:31;;;;;;;20.45;17.50;;;;;;;;;;143731;569;47020;-52
2021/07/19 02:36:58;;;;;;;23.27;18.62;;;;;;;;;;143735;634;47012;-52
2021/07/19 02:39:28;;;;;;;19.35;17.30;;;;;;;;;;143738;578;45912;-51
2021/07/19 02:41:55;;;;;;;26.65;18.67;;;;;;;;;;143742;612;46022;-52
2021/07/19 02:44:22;;;;;;;21.62;17.83;;;;;;;;;;143735;630;47018;-52
2021/07/19 02:46:51;;;;;;;21.12;16.58;;;;;;;;;;143736;595;47012;-52
2021/07/19 02:49:19;;;;;;;20.88;17.77;;;;;;;;;;143738;616;45912;-52
2021/07/19 02:51:49;;;;;;;20.73;16.40;;;;;;;;;;143740;575;46010;-52
2021/07/19 02:54:17;;;;;;;21.83;17.37;;;;;;;;;;143740;570;47018;-52
2021/07/19 02:56:46;;;;;;;19.92;17.77;;;;;;;;;;143735;575;47013;-52
2021/07/19 02:59:14;;;;;;;22.92;16.27;;;;;;;;;;143736;564;45019;-51
2021/07/19 03:01:43;;;;;;;25.77;22.67;;;;;;;;;;143742;582;46022;-51
2021/07/19 03:04:10;;;;;;;18.77;16.87;;;;;;;;;;143738;565;47018;-52
2021/07/19 03:06:39;;;;;;;22.75;20.30;;;;;;;;;;143736;570;47012;-52
2021/07/19 03:09:10;;;;;;;20.40;18.37;;;;;;;;;;143736;582;45912;-52
2021/07/19 03:11:40;;;;;;;23.45;18.17;;;;;;;;;;143743;623;45022;-52
2021/07/19 03:14:14;;;;;;;23.25;17.33;;;;;;;;;;143740;633;47021;-52
2021/07/19 03:16:44;;;;;;;26.90;20.05;;;;;;;;;;143738;610;47012;-52
2021/07/19 03:19:14;;;;;;;24.60;18.50;;;;;;;;;;143737;630;47015;-52
2021/07/19 03:21:43;;;;;;;20.52;18.08;;;;;;;;;;143740;631;46023;-52
2021/07/19 03:24:12;;;;;;;27.67;22.60;;;;;;;;;;143734;578;47020;-51
2021/07/19 03:26:41;;;;;;;23.27;18.87;;;;;;;;;;143737;566;47012;-52
2021/07/19 03:29:10;;;;;;;22.95;20.48;;;;;;;;;;143740;608;45913;-51
2021/07/19 03:31:37;;;;;;;25.88;19.90;;;;;;;;;;143743;653;46022;-51
2021/07/19 03:34:11;;;;;;;18.37;16.48;;;;;;;;;;143741;583;47018;-51
2021/07/19 03:36:38;;;;;;;21.92;19.00;;;;;;;;;;143736;612;47013;-52
2021/07/19 03:39:07;;;;;;;22.90;19.00;;;;;;;;;;143739;600;46016;-51
2021/07/19 03:41:34;;;;;;;27.42;17.73;;;;;;;;;;143745;629;45022;-52
2021/07/19 03:44:03;;;;;;;19.98;17.50;;;;;;;;;;143740;572;47018;-52
2021/07/19 03:46:30;;;;;;;23.65;20.67;;;;;;;;;;143738;593;47021;-52
2021/07/19 03:48:58;;;;;;;25.83;19.58;;;;;;;;;;143735;570;45913;-52
2021/07/19 03:51:29;;;;;;;24.80;21.55;;;;;;;;;;143743;605;46023;-51
2021/07/19 03:53:56;;;;;;;27.92;22.25;;;;;;;;;;143740;584;47018;-52
2021/07/19 03:56:28;;;;;;;25.70;22.67;;;;;;;;;;143738;591;47012;-51
2021/07/19 03:59:00;;;;;;;32.10;28.58;;;;;;;;;;143738;637;46018;-51
2021/07/19 04:01:27;;;;;;;20.75;17.83;;;;;;;;;;143741;715;45022;-51
2021/07/19 04:03:56;;;;;;;32.55;27.45;;;;;;;;;;143740;584;47018;-51
2021/07/19 04:06:24;;;;;;;46.58;39.70;;;;;;;;;;143738;711;47012;-51
2021/07/19 04:08:52;;;;;;;28.75;22.90;;;;;;;;;;143740;601;45912;-51
2021/07/19 04:11:20;;;;;;;29.87;26.70;;;;;;;;;;143743;698;45022;-52
2021/07/19 04:13:47;;;;;;;36.30;30.55;;;;;;;;;;143732;572;47019;-51
2021/07/19 04:16:14;;;;;;;32.53;24.73;;;;;;;;;;143742;734;47012;-52
2021/07/19 04:18:42;;;;;;;19.25;17.20;;;;;;;;;;143736;569;45912;-52
2021/07/19 04:21:10;;;;;;;20.85;18.62;;;;;;;;;;143742;566;45021;-51
2021/07/19 04:23:38;;;;;;;23.50;18.35;;;;;;;;;;143739;594;47020;-52
2021/07/19 04:26:05;;;;;;;28.25;21.33;;;;;;;;;;143737;585;47012;-51
2021/07/19 04:28:34;;;;;;;24.42;18.15;;;;;;;;;;143738;607;45913;-51
2021/07/19 04:31:02;;;;;;;25.58;17.48;;;;;;;;;;143744;721;45020;-51
2021/07/19 04:33:29;;;;;;;29.65;26.02;;;;;;;;;;143739;621;47022;-51
2021/07/19 04:35:56;;;;;;;26.00;23.48;;;;;;;;;;143739;607;46012;-51
2021/07/19 04:38:24;;;;;;;33.33;27.08;;;;;;;;;;143735;617;46012;-51
2021/07/19 04:40:56;;;;;;;38.55;30.12;;;;;;;;;;143741;612;45020;-52
2021/07/19 04:43:24;;;;;;;25.12;21.20;;;;;;;;;;143739;567;47021;-51
2021/07/19 04:45:53;;;;;;;21.23;17.33;;;;;;;;;;143739;577;47012;-51
2021/07/19 04:48:20;;;;;;;20.73;15.38;;;;;;;;;;143741;574;45020;-52
2021/07/19 04:50:48;;;;;;;18.90;15.65;;;;;;;;;;143740;589;48012;-51
2021/07/19 04:53:16;;;;;;;20.08;14.82;;;;;;;;;;143740;625;47020;-51
2021/07/19 04:55:47;;;;;;;19.77;15.57;;;;;;;;;;143734;598;47012;-52
2021/07/19 04:58:17;;;;;;;25.33;15.50;;;;;;;;;;143740;578;45913;-52
2021/07/19 05:00:58;;;;;;;19.08;14.65;;;;;;;;;;143743;595;46020;-52
2021/07/19 05:03:28;;;;;;;23.23;13.60;;;;;;;;;;143734;586;47021;-52
2021/07/19 05:05:58;;;;;;;18.37;13.45;;;;;;;;;;143737;589;47012;-52
2021/07/19 05:08:26;;;;;;;16.95;14.18;;;;;;;;;;143738;718;45912;-52
2021/07/19 05:10:54;;;;;;;23.55;16.10;;;;;;;;;;143745;569;46020;-53
2021/07/19 05:13:22;;;;;;;18.62;14.20;;;;;;;;;;143737;573;47013;-52
2021/07/19 05:15:49;;;;;;;23.92;14.82;;;;;;;;;;143737;569;47012;-51
2021/07/19 05:18:21;;;;;;;24.05;14.00;;;;;;;;;;143740;590;45913;-51
2021/07/19 05:20:50;;;;;;;17.55;13.02;;;;;;;;;;143744;566;46021;-52
2021/07/19 05:23:27;;;;;;;20.95;13.55;;;;;;;;;;143741;601;47022;-51
2021/07/19 05:25:55;;;;;;;17.65;13.20;;;;;;;;;;143741;582;47012;-52
2021/07/19 05:28:23;;;;;;;14.75;12.57;;;;;;;;;;143737;634;45913;-51
2021/07/19 05:30:51;;;;;;;19.75;12.40;;;;;;;;;;143743;638;45020;-52
2021/07/19 05:33:23;;;;;;;15.40;10.85;;;;;;;;;;143741;591;47020;-52
2021/07/19 05:35:51;;;;;;;18.65;14.73;;;;;;;;;;143739;583;47012;-51
2021/07/19 05:38:17;;;;;;;17.30;12.25;;;;;;;;;;143740;575;45912;-52
2021/07/19 05:40:45;;;;;;;17.05;11.70;;;;;;;;;;143745;588;45021;-52
2021/07/19 05:43:12;;;;;;;17.83;11.02;;;;;;;;;;143739;608;47020;-51
2021/07/19 05:45:39;;;;;;;13.68;10.52;;;;;;;;;;143740;569;47012;-52
2021/07/19 05:48:08;;;;;;;15.70;10.85;;;;;;;;;;143738;675;45912;-51
2021/07/19 05:50:35;;;;;;;13.25;10.95;;;;;;;;;;143745;572;46021;-51
2021/07/19 05:53:04;;;;;;;16.08;11.70;;;;;;;;;;143737;601;47020;-52
2021/07/19 05:55:31;;;;;;;12.05;9.27;;;;;;;;;;143741;565;47013;-52
2021/07/19 05:58:01;;;;;;;14.45;10.43;;;;;;;;;;143743;564;45021;-51
2021/07/19 06:00:28;;;;;;;13.88;10.00;;;;;;;;;;143742;685;45020;-51
2021/07/19 06:02:56;;;;;;;13.02;9.93;;;;;;;;;;143741;591;47020;-53
2021/07/19 06:05:23;;;;;;;15.00;9.52;;;;;;;;;;143738;574;47013;-53
2021/07/19 06:07:50;;;;;;;11.30;9.85;;;;;;;;;;143741;588;45020;-52
2021/07/19 06:10:18;;;;;;;15.20;9.63;;;;;;;;;;143743;623;46020;-52
2021/07/19 06:12:45;;;;;;;11.90;9.38;;;;;;;;;;143741;575;47021;-53
2021/07/19 06:15:13;;;;;;;17.95;9.32;;;;;;;;;;143738;564;46032;-52
2021/07/19 06:17:40;;;;;;;11.05;9.48;;;;;;;;;;143736;563;45912;-52
2021/07/19 06:20:12;;;;;;;14.38;9.95;;;;;;;;;;143744;654;45021;-51
2021/07/19 06:22:40;;;;;;;12.02;9.10;;;;;;;;;;143742;585;47020;-52
2021/07/19 06:25:11;;;;;;;12.82;9.25;;;;;;;;;;143740;607;47012;-52
2021/07/19 06:27:38;;;;;;;11.10;8.75;;;;;;;;;;143740;672;45913;-53
2021/07/19 06:30:09;;;;;;;12.00;8.40;;;;;;;;;;143744;578;46012;-52
2021/07/19 06:32:36;;;;;;;14.00;9.80;;;;;;;;;;143741;657;47022;-52
2021/07/19 06:35:05;;;;;;;11.35;8.52;;;;;;;;;;143740;605;47013;-52
2021/07/19 06:37:32;;;;;;;10.77;8.98;;;;;;;;;;143742;575;45020;-52
2021/07/19 06:39:59;;;;;;;9.90;8.75;;;;;;;;;;143745;581;45020;-51
2021/07/19 06:42:26;;;;;;;11.68;8.50;;;;;;;;;;143734;595;47021;-52
2021/07/19 06:44:56;;;;;;;10.82;9.25;;;;;;;;;;143739;586;47012;-52
2021/07/19 06:47:24;;;;;;;13.38;7.82;;;;;;;;;;143740;583;45912;-51
2021/07/19 06:49:51;;;;;;;8.88;7.70;;;;;;;;;;143745;564;45021;-51
2021/07/19 06:52:18;;;;;;;13.77;8.95;;;;;;;;;;143743;665;47020;-51
2021/07/19 06:54:45;;;;;;;14.73;8.38;;;;;;;;;;143738;585;47012;-52
2021/07/19 06:57:12;;;;;;;15.52;7.93;;;;;;;;;;143742;694;45913;-52
2021/07/19 06:59:39;;;;;;;13.60;8.60;;;;;;;;;;143746;574;46020;-51
2021/07/19 07:02:06;;;;;;;11.88;8.32;;;;;;;;;;143741;728;47022;-52
2021/07/19 07:04:33;;;;;;;14.18;8.50;;;;;;;;;;143741;569;47021;-52
2021/07/19 07:07:01;;;;;;;10.80;8.30;;;;;;;;;;143737;571;45914;-51
2021/07/19 07:09:29;;;;;;;11.93;8.40;;;;;;;;;;143745;575;45018;-52
2021/07/19 07:11:56;;;;;;;11.68;8.68;;;;;;;;;;143741;604;47021;-52
2021/07/19 07:14:23;;;;;;;12.15;7.97;;;;;;;;;;143739;665;47012;-53
2021/07/19 07:16:50;;;;;;;13.48;8.82;;;;;;;;;;143740;578;45912;-52
2021/07/19 07:19:17;;;;;;;11.63;8.63;;;;;;;;;;143745;569;46021;-52
2021/07/19 07:21:44;;;;;;;8.52;7.62;;;;;;;;;;143742;597;47022;-53
2021/07/19 07:24:11;;;;;;;12.25;8.93;;;;;;;;;;143741;653;47012;-52
2021/07/19 07:26:38;;;;;;;10.32;9.23;;;;;;;;;;143742;576;45913;-52
2021/07/19 07:29:05;;;;;;;15.15;8.57;;;;;;;;;;143745;573;45020;-52
2021/07/19 07:31:32;;;;;;;10.75;8.10;;;;;;;;;;143735;639;47022;-52
2021/07/19 07:34:01;;;;;;;11.57;8.63;;;;;;;;;;143742;590;47012;-52
2021/07/19 07:36:29;;;;;;;12.85;8.88;;;;;;;;;;143742;588;45914;-52
2021/07/19 07:38:57;;;;;;;12.57;9.63;;;;;;;;;;143745;563;45018;-52
2021/07/19 07:41:24;;;;;;;11.93;9.20;;;;;;;;;;143741;570;47021;-52
2021/07/19 07:43:51;;;;;;;9.52;8.27;;;;;;;;;;143742;592;47012;-52
2021/07/19 07:46:18;;;;;;;9.63;8.13;;;;;;;;;;143739;565;46020;-52
2021/07/19 07:48:45;;;;;;;12.85;9.35;;;;;;;;;;143745;650;45021;-52
2021/07/19 07:51:12;;;;;;;11.75;8.50;;;;;;;;;;143742;635;47020;-53
2021/07/19 07:53:39;;;;;;;11.00;8.48;;;;;;;;;;143742;568;47012;-52
2021/07/19 07:56:06;;;;;;;15.05;8.77;;;;;;;;;;143736;685;45912;-52
2021/07/19 07:58:34;;;;;;;14.82;8.93;;;;;;;;;;143745;652;45020;-53
2021/07/19 08:01:01;;;;;;;10.77;8.60;;;;;;;;;;143741;635;47020;-53
2021/07/19 08:03:28;;;;;;;13.27;9.23;;;;;;;;;;143740;566;47013;-52
2021/07/19 08:05:55;;;;;;;15.25;8.45;;;;;;;;;;143742;571;45020;-53
2021/07/19 08:08:22;;;;;;;15.77;9.15;;;;;;;;;;143741;584;46020;-52
2021/07/19 08:10:50;;;;;;;11.82;8.30;;;;;;;;;;143741;567;47022;-53
2021/07/19 08:13:17;;;;;;;12.60;8.30;;;;;;;;;;143737;611;47012;-53
2021/07/19 08:15:47;;;;;;;11.40;8.70;;;;;;;;;;143740;563;45020;-53
2021/07/19 08:18:15;;;;;;;10.13;8.27;;;;;;;;;;143744;590;46020;-52
2021/07/19 08:20:44;;;;;;;11.75;8.55;;;;;;;;;;143735;609;47020;-53
2021/07/19 08:23:11;;;;;;;15.20;8.57;;;;;;;;;;143740;646;47012;-52
2021/07/19 08:25:38;;;;;;;10.70;8.63;;;;;;;;;;143741;589;45021;-52
2021/07/19 08:28:06;;;;;;;11.43;8.60;;;;;;;;;;143745;567;45021;-52
2021/07/19 08:30:33;;;;;;;11.60;8.20;;;;;;;;;;143741;566;47022;-52
2021/07/19 08:33:00;;;;;;;12.07;8.80;;;;;;;;;;143738;586;47013;-53
2021/07/19 08:35:27;;;;;;;11.63;8.20;;;;;;;;;;143741;577;45912;-53
2021/07/19 08:37:57;;;;;;;11.25;8.13;;;;;;;;;;143745;639;45020;-53
2021/07/19 08:40:25;;;;;;;12.98;8.95;;;;;;;;;;143741;589;47022;-53
2021/07/19 08:42:53;;;;;;;16.17;9.60;;;;;;;;;;143737;593;47026;-52
2021/07/19 08:45:20;;;;;;;12.23;8.82;;;;;;;;;;143736;589;45913;-53
2021/07/19 08:47:49;;;;;;;9.38;7.87;;;;;;;;;;143744;615;46020;-52
2021/07/19 08:50:18;;;;;;;11.90;8.40;;;;;;;;;;143744;607;47020;-53
2021/07/19 08:52:52;;;;;;;11.88;7.87;;;;;;;;;;143737;613;47012;-53
2021/07/19 08:55:20;;;;;;;15.50;8.90;;;;;;;;;;143742;609;45021;-53
2021/07/19 08:57:49;;;;;;;15.85;8.88;;;;;;;;;;143744;564;46020;-53
2021/07/19 09:00:18;;;;;;;12.80;8.55;;;;;;;;;;143740;575;48020;-53
2021/07/19 09:02:45;;;;;;;10.80;8.32;;;;;;;;;;143742;590;47012;-53
2021/07/19 09:05:13;;;;;;;12.55;8.38;;;;;;;;;;143742;605;45912;-53
2021/07/19 09:07:40;;;;;;;11.52;8.77;;;;;;;;;;143744;581;46012;-53
2021/07/19 09:10:10;;;;;;;12.27;8.43;;;;;;;;;;143734;657;47022;-53
2021/07/19 09:12:39;;;;;;;15.50;8.48;;;;;;;;;;143739;647;47012;-53
2021/07/19 09:15:08;;;;;;;10.80;7.57;;;;;;;;;;143738;633;45912;-53
2021/07/19 09:17:36;;;;;;;13.70;8.05;;;;;;;;;;143746;640;46020;-53
2021/07/19 09:20:07;;;;;;;18.25;9.50;;;;;;;;;;143743;575;47023;-53
2021/07/19 09:22:35;;;;;;;13.23;9.18;;;;;;;;;;143740;603;47012;-54
2021/07/19 09:25:16;;;;;;;15.57;8.15;;;;;;;;;;143740;628;46913;-53
2021/07/19 09:28:06;;;;;;;10.60;8.77;;;;;;;;;;143745;610;46020;-53
2021/07/19 09:30:38;;;;;;;10.73;8.43;;;;;;;;;;143739;594;47020;-54
2021/07/19 09:33:13;;;;;;;10.87;8.00;;;;;;;;;;143740;572;47012;-53
2021/07/19 09:35:42;;;;;;;12.98;8.60;;;;;;;;;;143738;592;45020;-53
2021/07/19 09:38:14;;;;;;;12.25;8.70;;;;;;;;;;143744;601;46020;-52
2021/07/19 09:40:43;;;;;;;11.48;8.15;;;;;;;;;;143742;643;47021;-53
2021/07/19 09:43:23;;;;;;;16.37;9.38;;;;;;;;;;143741;592;47012;-53
2021/07/19 09:46:07;;;;;;;15.35;8.52;;;;;;;;;;143742;556;45912;-52
2021/07/19 09:48:36;;;;;;;12.50;8.68;;;;;;;;;;143745;621;45021;-53
2021/07/19 09:51:04;;;;;;;14.55;8.00;;;;;;;;;;143741;565;47022;-53
2021/07/19 09:53:39;;;;;;;14.68;8.48;;;;;;;;;;143740;572;47012;-53
2021/07/19 09:56:19;;;;;;;14.60;8.50;;;;;;;;;;143741;577;45913;-53
2021/07/19 09:58:52;;;;;;;11.65;7.80;;;;;;;;;;143742;572;46020;-54
2021/07/19 10:01:34;;;;;;;11.67;8.10;;;;;;;;;;143733;586;47022;-53
2021/07/19 10:04:18;;;;;;;12.35;8.00;;;;;;;;;;143739;564;47012;-54
2021/07/19 10:06:47;;;;;;;13.43;8.48;;;;;;;;;;143738;569;45912;-54
2021/07/19 10:09:15;;;;;;;12.02;8.73;;;;;;;;;;143738;584;47020;-53
2021/07/19 10:11:53;;;;;;;11.63;8.07;;;;;;;;;;143738;578;47023;-53
2021/07/19 10:14:33;;;;;;;15.90;8.48;;;;;;;;;;143735;632;47012;-53
2021/07/19 10:17:03;;;;;;;10.98;8.60;;;;;;;;;;143739;578;45021;-53
2021/07/19 10:19:30;;;;;;;10.88;8.27;;;;;;;;;;143744;569;46021;-53
2021/07/19 10:21:57;;;;;;;12.13;8.52;;;;;;;;;;143739;578;47022;-53
2021/07/19 10:24:24;;;;;;;14.70;9.65;;;;;;;;;;143738;570;47013;-53
2021/07/19 10:26:51;;;;;;;11.93;8.00;;;;;;;;;;143734;564;46008;-54
2021/07/19 10:29:19;;;;;;;12.20;8.35;;;;;;;;;;143742;577;45020;-53
2021/07/19 10:31:45;;;;;;;10.23;8.15;;;;;;;;;;143737;592;47022;-54
2021/07/19 10:34:14;;;;;;;16.42;9.05;;;;;;;;;;143737;565;47012;-52
2021/07/19 10:36:56;;;;;;;17.67;9.07;;;;;;;;;;143737;570;45912;-53
2021/07/19 10:39:31;;;;;;;12.50;8.80;;;;;;;;;;143742;589;45021;-51
2021/07/19 10:42:03;;;;;;;13.40;9.52;;;;;;;;;;143742;581;47020;-52
2021/07/19 10:44:36;;;;;;;18.62;9.75;;;;;;;;;;143733;626;47012;-53
2021/07/19 10:47:16;;;;;;;12.82;9.65;;;;;;;;;;143741;632;45021;-52
2021/07/19 10:50:00;;;;;;;14.48;9.18;;;;;;;;;;143745;594;45020;-51
2021/07/19 10:52:40;;;;;;;15.95;9.23;;;;;;;;;;143732;568;47020;-52
2021/07/19 10:55:09;;;;;;;14.73;9.40;;;;;;;;;;143736;587;46917;-53
2021/07/19 10:57:43;;;;;;;13.05;9.40;;;;;;;;;;143739;661;45020;-53
2021/07/19 11:00:19;;;;;;;13.27;8.75;;;;;;;;;;143743;564;45020;-52
2021/07/19 11:02:47;;;;;;;12.32;8.68;;;;;;;;;;143738;758;47023;-52
2021/07/19 11:05:15;;;;;;;13.93;8.23;;;;;;;;;;143739;569;46012;-52
2021/07/19 11:07:43;;;;;;;14.77;9.07;;;;;;;;;;143737;598;45912;-53
2021/07/19 11:10:18;;;;;;;11.70;8.73;;;;;;;;;;143744;569;46021;-52
2021/07/19 11:12:52;;;;;;;16.02;8.88;;;;;;;;;;143739;564;47020;-52
2021/07/19 11:15:21;;;;;;;16.10;9.38;;;;;;;;;;143741;579;46032;-52
2021/07/19 11:17:49;;;;;;;16.05;9.30;;;;;;;;;;143735;670;45021;-53
2021/07/19 11:20:18;;;;;;;14.73;8.93;;;;;;;;;;143743;650;45020;-69
2021/07/19 11:22:45;;;;;;;16.48;8.63;;;;;;;;;;143739;586;47020;-53
2021/07/19 11:25:15;;;;;;;14.82;9.13;;;;;;;;;;143738;569;47013;-53
2021/07/19 11:27:48;;;;;;;13.10;7.85;;;;;;;;;;143738;629;45912;-53
2021/07/19 11:30:23;;;;;;;12.37;9.20;;;;;;;;;;143743;577;45020;-53
2021/07/19 11:32:50;;;;;;;11.73;8.10;;;;;;;;;;143739;566;47021;-53
2021/07/19 11:35:19;;;;;;;13.98;8.45;;;;;;;;;;143739;659;47012;-53
2021/07/19 11:37:49;;;;;;;13.90;8.20;;;;;;;;;;143740;620;45912;-53
2021/07/19 11:40:37;;;;;;;17.30;9.07;;;;;;;;;;143743;616;46021;-53
2021/07/19 11:43:19;;;;;;;15.55;8.80;;;;;;;;;;143732;597;47022;-52
2021/07/19 11:45:48;;;;;;;12.27;7.72;;;;;;;;;;143737;589;47013;-52
2021/07/19 11:48:17;;;;;;;11.18;7.93;;;;;;;;;;143737;645;45913;-53
2021/07/19 11:50:45;;;;;;;12.80;8.07;;;;;;;;;;143743;635;45020;-53
2021/07/19 11:53:12;;;;;;;17.12;8.05;;;;;;;;;;143738;647;47021;-53
2021/07/19 11:55:39;;;;;;;13.52;8.23;;;;;;;;;;143739;605;47012;-53
2021/07/19 11:58:07;;;;;;;13.30;7.82;;;;;;;;;;143739;573;45912;-53
2021/07/19 12:00:38;;;;;;;13.60;7.60;;;;;;;;;;143741;583;46013;-53
2021/07/19 12:03:15;;;;;;;12.50;8.15;;;;;;;;;;143739;569;47023;-53
2021/07/19 12:05:55;;;;;;;9.55;7.40;;;;;;;;;;143736;661;47012;-53
2021/07/19 12:08:33;;;;;;;12.20;7.93;;;;;;;;;;143734;565;45913;-53
2021/07/19 12:11:10;;;;;;;16.62;7.60;;;;;;;;;;143742;661;45021;-52
2021/07/19 12:13:40;;;;;;;12.52;8.02;;;;;;;;;;143740;614;47022;-52
2021/07/19 12:16:08;;;;;;;15.57;8.75;;;;;;;;;;143737;635;47012;-52
2021/07/19 12:18:42;;;;;;;12.57;7.85;;;;;;;;;;143739;599;45021;-52
2021/07/19 12:21:12;;;;;;;15.02;8.85;;;;;;;;;;143744;569;45020;-52
2021/07/19 12:23:58;;;;;;;11.50;8.23;;;;;;;;;;143741;581;47022;-52
2021/07/19 12:26:54;;;;;;;16.45;8.48;;;;;;;;;;143738;569;47012;-53
2021/07/19 12:29:41;;;;;;;14.30;8.93;;;;;;;;;;143739;652;45020;-52
2021/07/19 12:32:11;;;;;;;16.02;7.95;;;;;;;;;;143743;564;45030;-53
2021/07/19 12:34:43;;;;;;;13.27;8.25;;;;;;;;;;143733;676;47020;-52
2021/07/19 12:37:15;;;;;;;13.77;8.88;;;;;;;;;;143737;590;47012;-53
2021/07/19 12:39:53;;;;;;;13.50;7.95;;;;;;;;;;143737;668;45913;-53
2021/07/19 12:42:23;;;;;;;10.95;7.35;;;;;;;;;;143743;569;45020;-53
2021/07/19 12:44:53;;;;;;;11.80;7.50;;;;;;;;;;143741;570;47021;-52
2021/07/19 12:47:21;;;;;;;13.65;8.60;;;;;;;;;;143739;596;47012;-52
2021/07/19 12:49:49;;;;;;;21.77;8.25;;;;;;;;;;143738;594;45912;-52
2021/07/19 12:52:21;;;;;;;12.50;7.53;;;;;;;;;;143743;616;46020;-52
2021/07/19 12:54:59;;;;;;;13.38;8.50;;;;;;;;;;143740;600;47021;-52
2021/07/19 12:57:27;;;;;;;16.95;8.23;;;;;;;;;;143737;616;47012;-52
2021/07/19 12:59:54;;;;;;;12.20;8.15;;;;;;;;;;143734;654;45913;-52
2021/07/19 13:02:22;;;;;;;11.98;8.32;;;;;;;;;;143742;613;46021;-52
2021/07/19 13:04:51;;;;;;;12.77;7.93;;;;;;;;;;143739;578;47022;-52
2021/07/19 13:07:30;;;;;;;17.90;8.55;;;;;;;;;;143740;586;46012;-51
2021/07/19 13:10:00;;;;;;;13.93;8.32;;;;;;;;;;143739;569;45913;-52
2021/07/19 13:12:28;;;;;;;15.65;8.75;;;;;;;;;;143744;624;45020;-52
2021/07/19 13:14:59;;;;;;;13.62;7.97;;;;;;;;;;143739;605;47022;-52
2021/07/19 13:17:32;;;;;;;13.15;8.98;;;;;;;;;;143739;608;47012;-52
2021/07/19 13:20:04;;;;;;;12.30;8.38;;;;;;;;;;143738;646;45912;-52
2021/07/19 13:22:33;;;;;;;14.32;9.30;;;;;;;;;;143741;601;46020;-52
2021/07/19 13:25:01;;;;;;;11.57;8.48;;;;;;;;;;143732;594;47023;-52
2021/07/19 13:27:37;;;;;;;15.48;9.50;;;;;;;;;;143736;679;47012;-51
2021/07/19 13:30:05;;;;;;;14.75;9.20;;;;;;;;;;143740;589;45913;-52
2021/07/19 13:32:32;;;;;;;10.70;8.30;;;;;;;;;;143744;673;45021;-52
2021/07/19 13:35:08;;;;;;;13.20;9.02;;;;;;;;;;143739;585;47022;-53
2021/07/19 13:37:36;;;;;;;12.50;8.05;;;;;;;;;;143737;573;47013;-53
2021/07/19 13:40:19;;;;;;;13.65;8.75;;;;;;;;;;143741;588;45021;-53
2021/07/19 13:43:02;;;;;;;11.45;8.43;;;;;;;;;;143744;619;45020;-53
2021/07/19 13:45:30;;;;;;;13.38;8.38;;;;;;;;;;143740;596;47022;-53
2021/07/19 13:47:57;;;;;;;13.70;9.25;;;;;;;;;;143737;581;47012;-53
2021/07/19 13:50:24;;;;;;;10.70;8.05;;;;;;;;;;143735;570;46020;-52
2021/07/19 13:52:51;;;;;;;11.57;8.30;;;;;;;;;;143742;594;46020;-53
2021/07/19 13:55:18;;;;;;;13.43;8.98;;;;;;;;;;143739;580;47020;-53
2021/07/19 13:57:46;;;;;;;11.40;8.88;;;;;;;;;;143739;620;47012;-53
2021/07/19 14:00:19;;;;;;;14.45;8.73;;;;;;;;;;143738;588;45912;-52
2021/07/19 14:02:47;;;;;;;9.07;7.97;;;;;;;;;;143743;602;45021;-52
2021/07/19 14:05:15;;;;;;;14.73;9.30;;;;;;;;;;143740;624;47020;-52
2021/07/19 14:07:42;;;;;;;15.25;8.80;;;;;;;;;;143738;570;47012;-52
2021/07/19 14:10:10;;;;;;;14.00;9.45;;;;;;;;;;143739;622;45912;-53
2021/07/19 14:12:37;;;;;;;11.32;8.85;;;;;;;;;;143742;652;45020;-52
2021/07/19 14:15:11;;;;;;;12.90;9.43;;;;;;;;;;143732;565;47022;-53
2021/07/19 14:17:37;;;;;;;;;;;;;;;;;;143744;979;47012;-52
2021/07/19 14:20:05;;;;;;;11.60;8.82;;;;;;;;;;143745;640;45923;-52
2021/07/19 14:22:34;;;;;;;14.23;10.00;;;;;;;;;;143743;652;45021;-52
2021/07/19 14:25:02;;;;;;;11.18;9.23;;;;;;;;;;143739;595;47020;-52
2021/07/19 14:27:29;;;;;;;13.13;9.23;;;;;;;;;;143736;585;47012;-52
2021/07/19 14:29:57;;;;;;;11.60;9.63;;;;;;;;;;143740;598;45913;-52
2021/07/19 14:32:24;;;;;;;12.07;9.55;;;;;;;;;;143742;613;45021;-53
2021/07/19 14:34:50;;;;;;;16.52;10.07;;;;;;;;;;143739;581;47022;-52
2021/07/19 14:37:17;;;;;;;15.57;10.73;;;;;;;;;;143738;573;47012;-52
2021/07/19 14:39:44;;;;;;;14.75;9.70;;;;;;;;;;143736;591;45021;-51
2021/07/19 14:42:12;;;;;;;11.52;9.38;;;;;;;;;;143741;607;45912;-52